sensor_id;sensor_type;location;lat;lon;timestamp;P1;durP1;ratioP1;P2;durP2;ratioP2
78489;SDS011;67776;52.012;4.736;2023-07-29T00:01:49;6.23;;;1.93;;
78489;SDS011;67776;52.012;4.736;2023-07-29T00:04:15;7.17;;;2.00;;
78489;SDS011;67776;52.012;4.736;2023-07-29T00:06:41;6.55;;;2.17;;
78489;SDS011;67776;52.012;4.736;2023-07-29T00:09:06;8.40;;;2.10;;
78489;SDS011;67776;52.012;4.736;2023-07-29T00:11:31;5.97;;;1.90;;
78489;SDS011;67776;52.012;4.736;2023-07-29T00:13:59;6.72;;;2.22;;
78489;SDS011;67776;52.012;4.736;2023-07-29T00:16:25;8.65;;;2.40;;
78489;SDS011;67776;52.012;4.736;2023-07-29T00:18:51;7.83;;;2.30;;
78489;SDS011;67776;52.012;4.736;2023-07-29T00:21:16;7.17;;;2.30;;
78489;SDS011;67776;52.012;4.736;2023-07-29T00:23:42;13.52;;;3.75;;
78489;SDS011;67776;52.012;4.736;2023-07-29T00:26:09;8.33;;;2.40;;
78489;SDS011;67776;52.012;4.736;2023-07-29T00:28:35;7.85;;;2.42;;
78489;SDS011;67776;52.012;4.736;2023-07-29T00:31:01;9.67;;;2.37;;
78489;SDS011;67776;52.012;4.736;2023-07-29T00:33:27;9.13;;;2.50;;
78489;SDS011;67776;52.012;4.736;2023-07-29T00:35:52;6.87;;;2.57;;
78489;SDS011;67776;52.012;4.736;2023-07-29T00:38:18;13.17;;;2.60;;
78489;SDS011;67776;52.012;4.736;2023-07-29T00:40:43;9.00;;;2.60;;
78489;SDS011;67776;52.012;4.736;2023-07-29T00:43:08;8.17;;;2.83;;
78489;SDS011;67776;52.012;4.736;2023-07-29T00:45:34;7.73;;;2.60;;
78489;SDS011;67776;52.012;4.736;2023-07-29T00:48:00;9.40;;;2.80;;
78489;SDS011;67776;52.012;4.736;2023-07-29T00:50:27;7.65;;;2.50;;
78489;SDS011;67776;52.012;4.736;2023-07-29T00:52:54;7.97;;;2.33;;
78489;SDS011;67776;52.012;4.736;2023-07-29T00:55:20;12.00;;;2.60;;
78489;SDS011;67776;52.012;4.736;2023-07-29T00:57:45;11.35;;;2.35;;
78489;SDS011;67776;52.012;4.736;2023-07-29T01:00:13;8.20;;;2.47;;
78489;SDS011;67776;52.012;4.736;2023-07-29T01:02:39;9.80;;;2.90;;
78489;SDS011;67776;52.012;4.736;2023-07-29T01:05:05;11.40;;;2.78;;
78489;SDS011;67776;52.012;4.736;2023-07-29T01:12:56;9.23;;;2.80;;
78489;SDS011;67776;52.012;4.736;2023-07-29T01:18:11;9.70;;;2.75;;
78489;SDS011;67776;52.012;4.736;2023-07-29T01:20:45;8.02;;;2.95;;
78489;SDS011;67776;52.012;4.736;2023-07-29T01:23:12;11.57;;;2.80;;
78489;SDS011;67776;52.012;4.736;2023-07-29T01:25:38;9.73;;;3.20;;
78489;SDS011;67776;52.012;4.736;2023-07-29T01:28:04;9.30;;;3.67;;
78489;SDS011;67776;52.012;4.736;2023-07-29T01:30:30;7.25;;;2.90;;
78489;SDS011;67776;52.012;4.736;2023-07-29T01:35:42;10.70;;;3.13;;
78489;SDS011;67776;52.012;4.736;2023-07-29T01:40:41;11.55;;;3.50;;
78489;SDS011;67776;52.012;4.736;2023-07-29T01:43:08;11.93;;;3.58;;
78489;SDS011;67776;52.012;4.736;2023-07-29T01:45:33;8.43;;;3.43;;
78489;SDS011;67776;52.012;4.736;2023-07-29T01:48:03;11.25;;;4.10;;
78489;SDS011;67776;52.012;4.736;2023-07-29T01:50:32;10.52;;;3.50;;
78489;SDS011;67776;52.012;4.736;2023-07-29T01:52:57;8.70;;;3.23;;
78489;SDS011;67776;52.012;4.736;2023-07-29T01:55:23;12.57;;;4.38;;
78489;SDS011;67776;52.012;4.736;2023-07-29T01:57:49;8.90;;;3.40;;
78489;SDS011;67776;52.012;4.736;2023-07-29T02:00:14;9.45;;;3.08;;
78489;SDS011;67776;52.012;4.736;2023-07-29T02:02:40;9.13;;;3.00;;
78489;SDS011;67776;52.012;4.736;2023-07-29T02:05:06;8.00;;;2.90;;
78489;SDS011;67776;52.012;4.736;2023-07-29T02:07:31;8.37;;;3.63;;
78489;SDS011;67776;52.012;4.736;2023-07-29T02:09:56;8.80;;;3.03;;
78489;SDS011;67776;52.012;4.736;2023-07-29T02:12:22;9.57;;;2.90;;
78489;SDS011;67776;52.012;4.736;2023-07-29T02:14:47;11.47;;;3.00;;
78489;SDS011;67776;52.012;4.736;2023-07-29T02:17:12;8.13;;;3.13;;
78489;SDS011;67776;52.012;4.736;2023-07-29T02:19:38;7.55;;;2.80;;
78489;SDS011;67776;52.012;4.736;2023-07-29T02:22:03;12.80;;;3.03;;
78489;SDS011;67776;52.012;4.736;2023-07-29T02:24:28;7.67;;;2.40;;
78489;SDS011;67776;52.012;4.736;2023-07-29T02:26:54;7.77;;;2.67;;
78489;SDS011;67776;52.012;4.736;2023-07-29T02:29:19;8.53;;;2.13;;
78489;SDS011;67776;52.012;4.736;2023-07-29T02:31:44;8.67;;;2.50;;
78489;SDS011;67776;52.012;4.736;2023-07-29T02:34:10;7.30;;;2.45;;
78489;SDS011;67776;52.012;4.736;2023-07-29T02:36:35;6.63;;;2.13;;
78489;SDS011;67776;52.012;4.736;2023-07-29T02:39:00;7.50;;;2.67;;
78489;SDS011;67776;52.012;4.736;2023-07-29T02:41:26;6.33;;;2.70;;
78489;SDS011;67776;52.012;4.736;2023-07-29T02:43:51;6.27;;;2.23;;
78489;SDS011;67776;52.012;4.736;2023-07-29T02:46:17;8.30;;;2.67;;
78489;SDS011;67776;52.012;4.736;2023-07-29T02:48:43;6.10;;;2.50;;
78489;SDS011;67776;52.012;4.736;2023-07-29T02:51:09;7.32;;;2.50;;
78489;SDS011;67776;52.012;4.736;2023-07-29T02:53:34;7.83;;;2.40;;
78489;SDS011;67776;52.012;4.736;2023-07-29T02:56:01;5.93;;;2.00;;
78489;SDS011;67776;52.012;4.736;2023-07-29T02:58:31;6.95;;;2.30;;
78489;SDS011;67776;52.012;4.736;2023-07-29T03:01:00;8.60;;;2.40;;
78489;SDS011;67776;52.012;4.736;2023-07-29T03:03:27;6.38;;;2.65;;
78489;SDS011;67776;52.012;4.736;2023-07-29T03:05:57;8.03;;;2.60;;
78489;SDS011;67776;52.012;4.736;2023-07-29T03:08:27;6.18;;;2.30;;
78489;SDS011;67776;52.012;4.736;2023-07-29T03:10:52;5.85;;;2.22;;
78489;SDS011;67776;52.012;4.736;2023-07-29T03:13:18;8.50;;;2.43;;
78489;SDS011;67776;52.012;4.736;2023-07-29T03:15:47;6.88;;;2.60;;
78489;SDS011;67776;52.012;4.736;2023-07-29T03:18:12;6.57;;;2.73;;
78489;SDS011;67776;52.012;4.736;2023-07-29T03:20:37;7.00;;;2.40;;
78489;SDS011;67776;52.012;4.736;2023-07-29T03:23:03;5.90;;;2.72;;
78489;SDS011;67776;52.012;4.736;2023-07-29T03:25:28;5.13;;;2.20;;
78489;SDS011;67776;52.012;4.736;2023-07-29T03:27:54;7.03;;;2.20;;
78489;SDS011;67776;52.012;4.736;2023-07-29T03:30:20;6.40;;;2.30;;
78489;SDS011;67776;52.012;4.736;2023-07-29T03:32:46;7.17;;;2.50;;
78489;SDS011;67776;52.012;4.736;2023-07-29T03:35:12;5.35;;;2.25;;
78489;SDS011;67776;52.012;4.736;2023-07-29T03:37:37;6.33;;;2.60;;
78489;SDS011;67776;52.012;4.736;2023-07-29T03:40:03;6.03;;;2.42;;
78489;SDS011;67776;52.012;4.736;2023-07-29T03:42:29;7.47;;;2.50;;
78489;SDS011;67776;52.012;4.736;2023-07-29T03:44:55;6.03;;;2.30;;
78489;SDS011;67776;52.012;4.736;2023-07-29T03:47:20;8.70;;;2.80;;
78489;SDS011;67776;52.012;4.736;2023-07-29T03:49:45;6.07;;;2.30;;
78489;SDS011;67776;52.012;4.736;2023-07-29T03:52:11;5.47;;;2.23;;
78489;SDS011;67776;52.012;4.736;2023-07-29T03:54:36;7.60;;;2.37;;
78489;SDS011;67776;52.012;4.736;2023-07-29T03:57:01;7.87;;;2.10;;
78489;SDS011;67776;52.012;4.736;2023-07-29T03:59:27;7.53;;;2.35;;
78489;SDS011;67776;52.012;4.736;2023-07-29T04:01:52;7.60;;;2.53;;
78489;SDS011;67776;52.012;4.736;2023-07-29T04:04:17;8.27;;;2.60;;
78489;SDS011;67776;52.012;4.736;2023-07-29T04:06:43;9.40;;;2.50;;
78489;SDS011;67776;52.012;4.736;2023-07-29T04:09:08;6.60;;;2.30;;
78489;SDS011;67776;52.012;4.736;2023-07-29T04:11:34;5.75;;;2.67;;
78489;SDS011;67776;52.012;4.736;2023-07-29T04:13:59;10.03;;;2.97;;
78489;SDS011;67776;52.012;4.736;2023-07-29T04:16:25;7.13;;;2.37;;
78489;SDS011;67776;52.012;4.736;2023-07-29T04:18:50;5.93;;;2.30;;
78489;SDS011;67776;52.012;4.736;2023-07-29T04:21:15;7.00;;;2.43;;
78489;SDS011;67776;52.012;4.736;2023-07-29T04:23:41;7.60;;;2.80;;
78489;SDS011;67776;52.012;4.736;2023-07-29T04:26:06;7.50;;;2.63;;
78489;SDS011;67776;52.012;4.736;2023-07-29T04:28:31;8.10;;;2.67;;
78489;SDS011;67776;52.012;4.736;2023-07-29T04:30:57;9.87;;;2.93;;
78489;SDS011;67776;52.012;4.736;2023-07-29T04:33:22;8.63;;;2.80;;
78489;SDS011;67776;52.012;4.736;2023-07-29T04:35:47;7.97;;;3.10;;
78489;SDS011;67776;52.012;4.736;2023-07-29T04:38:13;8.40;;;3.00;;
78489;SDS011;67776;52.012;4.736;2023-07-29T04:40:38;7.32;;;2.80;;
78489;SDS011;67776;52.012;4.736;2023-07-29T04:43:03;9.90;;;3.00;;
78489;SDS011;67776;52.012;4.736;2023-07-29T04:45:29;7.93;;;3.40;;
78489;SDS011;67776;52.012;4.736;2023-07-29T04:47:55;8.15;;;3.30;;
78489;SDS011;67776;52.012;4.736;2023-07-29T04:50:20;7.67;;;3.30;;
78489;SDS011;67776;52.012;4.736;2023-07-29T04:52:46;10.23;;;3.20;;
78489;SDS011;67776;52.012;4.736;2023-07-29T04:55:11;10.32;;;3.67;;
78489;SDS011;67776;52.012;4.736;2023-07-29T04:57:36;11.20;;;3.70;;
78489;SDS011;67776;52.012;4.736;2023-07-29T05:00:02;10.73;;;3.70;;
78489;SDS011;67776;52.012;4.736;2023-07-29T05:02:28;9.85;;;3.60;;
78489;SDS011;67776;52.012;4.736;2023-07-29T05:04:53;9.60;;;3.70;;
78489;SDS011;67776;52.012;4.736;2023-07-29T05:07:18;8.70;;;3.67;;
78489;SDS011;67776;52.012;4.736;2023-07-29T05:09:44;10.47;;;4.10;;
78489;SDS011;67776;52.012;4.736;2023-07-29T05:12:09;8.73;;;4.03;;
78489;SDS011;67776;52.012;4.736;2023-07-29T05:14:35;9.50;;;4.00;;
78489;SDS011;67776;52.012;4.736;2023-07-29T05:17:00;12.83;;;3.90;;
78489;SDS011;67776;52.012;4.736;2023-07-29T05:19:26;13.47;;;3.87;;
78489;SDS011;67776;52.012;4.736;2023-07-29T05:21:51;10.33;;;4.33;;
78489;SDS011;67776;52.012;4.736;2023-07-29T05:24:16;8.95;;;4.13;;
78489;SDS011;67776;52.012;4.736;2023-07-29T05:26:42;10.00;;;3.90;;
78489;SDS011;67776;52.012;4.736;2023-07-29T05:29:07;9.80;;;4.30;;
78489;SDS011;67776;52.012;4.736;2023-07-29T05:31:32;11.43;;;4.30;;
78489;SDS011;67776;52.012;4.736;2023-07-29T05:33:58;9.37;;;4.00;;
78489;SDS011;67776;52.012;4.736;2023-07-29T05:36:24;8.98;;;4.13;;
78489;SDS011;67776;52.012;4.736;2023-07-29T05:38:49;10.83;;;4.13;;
78489;SDS011;67776;52.012;4.736;2023-07-29T05:41:15;11.68;;;4.30;;
78489;SDS011;67776;52.012;4.736;2023-07-29T05:43:40;11.90;;;4.63;;
78489;SDS011;67776;52.012;4.736;2023-07-29T05:46:08;8.90;;;4.10;;
78489;SDS011;67776;52.012;4.736;2023-07-29T05:48:33;9.30;;;4.63;;
78489;SDS011;67776;52.012;4.736;2023-07-29T05:50:59;10.10;;;4.30;;
78489;SDS011;67776;52.012;4.736;2023-07-29T05:53:24;14.60;;;5.27;;
78489;SDS011;67776;52.012;4.736;2023-07-29T05:55:50;11.63;;;5.00;;
78489;SDS011;67776;52.012;4.736;2023-07-29T05:58:18;11.10;;;4.78;;
78489;SDS011;67776;52.012;4.736;2023-07-29T06:00:43;10.93;;;4.30;;
78489;SDS011;67776;52.012;4.736;2023-07-29T06:03:09;13.07;;;5.10;;
78489;SDS011;67776;52.012;4.736;2023-07-29T06:05:34;11.40;;;4.82;;
78489;SDS011;67776;52.012;4.736;2023-07-29T06:07:59;11.60;;;4.83;;
78489;SDS011;67776;52.012;4.736;2023-07-29T06:10:25;13.67;;;5.23;;
78489;SDS011;67776;52.012;4.736;2023-07-29T06:12:50;16.63;;;5.30;;
78489;SDS011;67776;52.012;4.736;2023-07-29T06:15:15;11.70;;;4.53;;
78489;SDS011;67776;52.012;4.736;2023-07-29T06:17:41;10.90;;;4.30;;
78489;SDS011;67776;52.012;4.736;2023-07-29T06:20:06;11.93;;;4.80;;
78489;SDS011;67776;52.012;4.736;2023-07-29T06:22:32;11.02;;;4.60;;
78489;SDS011;67776;52.012;4.736;2023-07-29T06:24:57;12.47;;;4.50;;
78489;SDS011;67776;52.012;4.736;2023-07-29T06:27:23;10.37;;;4.27;;
78489;SDS011;67776;52.012;4.736;2023-07-29T06:29:50;10.48;;;4.45;;
78489;SDS011;67776;52.012;4.736;2023-07-29T06:32:15;10.10;;;4.77;;
78489;SDS011;67776;52.012;4.736;2023-07-29T06:34:40;11.07;;;4.60;;
78489;SDS011;67776;52.012;4.736;2023-07-29T06:37:06;11.20;;;4.53;;
78489;SDS011;67776;52.012;4.736;2023-07-29T06:39:31;9.43;;;4.63;;
78489;SDS011;67776;52.012;4.736;2023-07-29T06:41:56;11.63;;;4.37;;
78489;SDS011;67776;52.012;4.736;2023-07-29T06:44:22;9.70;;;4.77;;
78489;SDS011;67776;52.012;4.736;2023-07-29T06:46:47;10.57;;;3.73;;
78489;SDS011;67776;52.012;4.736;2023-07-29T06:49:12;10.90;;;4.27;;
78489;SDS011;67776;52.012;4.736;2023-07-29T06:51:38;11.20;;;4.40;;
78489;SDS011;67776;52.012;4.736;2023-07-29T06:54:03;12.73;;;4.30;;
78489;SDS011;67776;52.012;4.736;2023-07-29T06:56:28;9.53;;;4.20;;
78489;SDS011;67776;52.012;4.736;2023-07-29T06:58:54;9.05;;;3.90;;
78489;SDS011;67776;52.012;4.736;2023-07-29T07:01:19;9.83;;;3.97;;
78489;SDS011;67776;52.012;4.736;2023-07-29T07:03:45;9.40;;;4.23;;
78489;SDS011;67776;52.012;4.736;2023-07-29T07:06:10;8.80;;;3.90;;
78489;SDS011;67776;52.012;4.736;2023-07-29T07:08:35;9.87;;;3.83;;
78489;SDS011;67776;52.012;4.736;2023-07-29T07:11:00;9.10;;;3.90;;
78489;SDS011;67776;52.012;4.736;2023-07-29T07:13:26;9.25;;;4.25;;
78489;SDS011;67776;52.012;4.736;2023-07-29T07:15:54;8.93;;;4.63;;
78489;SDS011;67776;52.012;4.736;2023-07-29T07:18:20;8.65;;;4.03;;
78489;SDS011;67776;52.012;4.736;2023-07-29T07:20:48;10.00;;;4.53;;
78489;SDS011;67776;52.012;4.736;2023-07-29T07:23:14;8.82;;;4.35;;
78489;SDS011;67776;52.012;4.736;2023-07-29T07:25:40;10.40;;;4.53;;
78489;SDS011;67776;52.012;4.736;2023-07-29T07:28:07;7.68;;;3.83;;
78489;SDS011;67776;52.012;4.736;2023-07-29T07:30:32;8.67;;;3.73;;
78489;SDS011;67776;52.012;4.736;2023-07-29T07:32:57;10.20;;;3.70;;
78489;SDS011;67776;52.012;4.736;2023-07-29T07:35:23;7.90;;;4.13;;
78489;SDS011;67776;52.012;4.736;2023-07-29T07:37:48;10.53;;;4.13;;
78489;SDS011;67776;52.012;4.736;2023-07-29T07:40:13;6.97;;;4.35;;
78489;SDS011;67776;52.012;4.736;2023-07-29T07:42:39;8.30;;;4.33;;
78489;SDS011;67776;52.012;4.736;2023-07-29T07:45:04;9.00;;;4.73;;
78489;SDS011;67776;52.012;4.736;2023-07-29T07:47:30;10.60;;;4.80;;
78489;SDS011;67776;52.012;4.736;2023-07-29T07:49:55;9.53;;;5.17;;
78489;SDS011;67776;52.012;4.736;2023-07-29T07:52:21;8.77;;;5.17;;
78489;SDS011;67776;52.012;4.736;2023-07-29T07:54:51;9.13;;;5.20;;
78489;SDS011;67776;52.012;4.736;2023-07-29T07:57:17;11.13;;;5.47;;
78489;SDS011;67776;52.012;4.736;2023-07-29T07:59:42;9.37;;;4.97;;
78489;SDS011;67776;52.012;4.736;2023-07-29T08:02:08;8.63;;;4.67;;
78489;SDS011;67776;52.012;4.736;2023-07-29T08:04:33;9.15;;;4.57;;
78489;SDS011;67776;52.012;4.736;2023-07-29T08:06:58;8.80;;;4.53;;
78489;SDS011;67776;52.012;4.736;2023-07-29T08:09:23;7.80;;;4.00;;
78489;SDS011;67776;52.012;4.736;2023-07-29T08:11:49;9.27;;;3.80;;
78489;SDS011;67776;52.012;4.736;2023-07-29T08:14:14;9.13;;;3.73;;
78489;SDS011;67776;52.012;4.736;2023-07-29T08:16:39;8.67;;;4.20;;
78489;SDS011;67776;52.012;4.736;2023-07-29T08:19:05;10.50;;;4.40;;
78489;SDS011;67776;52.012;4.736;2023-07-29T08:21:30;6.80;;;3.83;;
78489;SDS011;67776;52.012;4.736;2023-07-29T08:23:56;8.30;;;4.05;;
78489;SDS011;67776;52.012;4.736;2023-07-29T08:26:21;14.90;;;4.50;;
78489;SDS011;67776;52.012;4.736;2023-07-29T08:28:48;7.80;;;4.20;;
78489;SDS011;67776;52.012;4.736;2023-07-29T08:31:13;8.38;;;4.30;;
78489;SDS011;67776;52.012;4.736;2023-07-29T08:33:38;7.97;;;4.53;;
78489;SDS011;67776;52.012;4.736;2023-07-29T08:36:04;7.43;;;4.40;;
78489;SDS011;67776;52.012;4.736;2023-07-29T08:38:29;8.30;;;4.70;;
78489;SDS011;67776;52.012;4.736;2023-07-29T08:43:48;7.13;;;4.13;;
78489;SDS011;67776;52.012;4.736;2023-07-29T08:46:18;12.45;;;4.47;;
78489;SDS011;67776;52.012;4.736;2023-07-29T08:48:44;7.00;;;4.22;;
78489;SDS011;67776;52.012;4.736;2023-07-29T08:51:11;8.77;;;4.28;;
78489;SDS011;67776;52.012;4.736;2023-07-29T08:53:37;10.90;;;4.63;;
78489;SDS011;67776;52.012;4.736;2023-07-29T08:56:04;11.10;;;6.00;;
78489;SDS011;67776;52.012;4.736;2023-07-29T08:58:30;10.85;;;6.00;;
78489;SDS011;67776;52.012;4.736;2023-07-29T09:00:56;10.07;;;6.60;;
78489;SDS011;67776;52.012;4.736;2023-07-29T09:03:21;9.93;;;6.27;;
78489;SDS011;67776;52.012;4.736;2023-07-29T09:05:47;10.17;;;5.87;;
78489;SDS011;67776;52.012;4.736;2023-07-29T09:08:13;9.43;;;5.90;;
78489;SDS011;67776;52.012;4.736;2023-07-29T09:10:39;10.83;;;5.53;;
78489;SDS011;67776;52.012;4.736;2023-07-29T09:13:04;11.18;;;5.47;;
78489;SDS011;67776;52.012;4.736;2023-07-29T09:15:32;8.52;;;4.97;;
78489;SDS011;67776;52.012;4.736;2023-07-29T09:17:59;10.00;;;5.27;;
78489;SDS011;67776;52.012;4.736;2023-07-29T09:20:33;9.90;;;5.00;;
78489;SDS011;67776;52.012;4.736;2023-07-29T09:22:59;8.35;;;4.72;;
78489;SDS011;67776;52.012;4.736;2023-07-29T09:25:27;10.83;;;4.60;;
78489;SDS011;67776;52.012;4.736;2023-07-29T09:28:00;10.25;;;4.65;;
78489;SDS011;67776;52.012;4.736;2023-07-29T09:30:26;9.05;;;5.03;;
78489;SDS011;67776;52.012;4.736;2023-07-29T09:32:55;11.25;;;5.38;;
78489;SDS011;67776;52.012;4.736;2023-07-29T09:35:22;10.57;;;5.30;;
78489;SDS011;67776;52.012;4.736;2023-07-29T09:37:47;10.68;;;5.80;;
78489;SDS011;67776;52.012;4.736;2023-07-29T09:40:14;10.43;;;5.72;;
78489;SDS011;67776;52.012;4.736;2023-07-29T09:42:40;8.53;;;5.57;;
78489;SDS011;67776;52.012;4.736;2023-07-29T09:45:18;9.60;;;5.20;;
78489;SDS011;67776;52.012;4.736;2023-07-29T09:47:45;9.38;;;6.03;;
78489;SDS011;67776;52.012;4.736;2023-07-29T09:50:11;8.38;;;5.40;;
78489;SDS011;67776;52.012;4.736;2023-07-29T09:52:37;9.03;;;5.03;;
78489;SDS011;67776;52.012;4.736;2023-07-29T09:55:02;8.43;;;5.10;;
78489;SDS011;67776;52.012;4.736;2023-07-29T09:57:28;8.48;;;5.40;;
78489;SDS011;67776;52.012;4.736;2023-07-29T09:59:55;8.40;;;5.10;;
78489;SDS011;67776;52.012;4.736;2023-07-29T10:02:21;7.65;;;4.90;;
78489;SDS011;67776;52.012;4.736;2023-07-29T10:04:47;9.25;;;5.00;;
78489;SDS011;67776;52.012;4.736;2023-07-29T10:07:12;11.52;;;6.88;;
78489;SDS011;67776;52.012;4.736;2023-07-29T10:09:39;9.40;;;5.55;;
78489;SDS011;67776;52.012;4.736;2023-07-29T10:12:05;10.40;;;5.40;;
78489;SDS011;67776;52.012;4.736;2023-07-29T10:14:31;8.10;;;4.40;;
78489;SDS011;67776;52.012;4.736;2023-07-29T10:16:57;6.77;;;3.90;;
78489;SDS011;67776;52.012;4.736;2023-07-29T10:19:24;7.30;;;3.65;;
78489;SDS011;67776;52.012;4.736;2023-07-29T10:21:51;6.35;;;3.20;;
78489;SDS011;67776;52.012;4.736;2023-07-29T10:24:18;5.10;;;2.55;;
78489;SDS011;67776;52.012;4.736;2023-07-29T10:26:46;5.87;;;1.97;;
78489;SDS011;67776;52.012;4.736;2023-07-29T10:29:14;4.03;;;1.90;;
78489;SDS011;67776;52.012;4.736;2023-07-29T10:31:44;4.45;;;1.60;;
78489;SDS011;67776;52.012;4.736;2023-07-29T10:34:10;4.97;;;1.40;;
78489;SDS011;67776;52.012;4.736;2023-07-29T10:36:36;4.32;;;1.40;;
78489;SDS011;67776;52.012;4.736;2023-07-29T10:39:02;4.35;;;1.38;;
78489;SDS011;67776;52.012;4.736;2023-07-29T10:47:18;3.53;;;1.40;;
78489;SDS011;67776;52.012;4.736;2023-07-29T10:49:46;4.43;;;1.40;;
78489;SDS011;67776;52.012;4.736;2023-07-29T10:52:14;6.57;;;1.80;;
78489;SDS011;67776;52.012;4.736;2023-07-29T10:54:42;6.78;;;1.90;;
78489;SDS011;67776;52.012;4.736;2023-07-29T10:57:08;5.07;;;1.90;;
78489;SDS011;67776;52.012;4.736;2023-07-29T10:59:41;5.05;;;1.88;;
78489;SDS011;67776;52.012;4.736;2023-07-29T11:02:17;4.97;;;2.00;;
78489;SDS011;67776;52.012;4.736;2023-07-29T11:04:47;4.97;;;1.88;;
78489;SDS011;67776;52.012;4.736;2023-07-29T11:15:12;5.47;;;2.90;;
78489;SDS011;67776;52.012;4.736;2023-07-29T11:18:03;6.40;;;3.03;;
78489;SDS011;67776;52.012;4.736;2023-07-29T11:20:31;7.43;;;3.13;;
78489;SDS011;67776;52.012;4.736;2023-07-29T11:23:01;7.75;;;3.38;;
78489;SDS011;67776;52.012;4.736;2023-07-29T11:25:29;6.47;;;2.88;;
78489;SDS011;67776;52.012;4.736;2023-07-29T11:27:58;5.93;;;2.42;;
78489;SDS011;67776;52.012;4.736;2023-07-29T11:30:24;5.75;;;2.53;;
78489;SDS011;67776;52.012;4.736;2023-07-29T11:32:55;7.03;;;2.60;;
78489;SDS011;67776;52.012;4.736;2023-07-29T11:35:21;6.20;;;2.80;;
78489;SDS011;67776;52.012;4.736;2023-07-29T11:37:48;4.85;;;2.35;;
78489;SDS011;67776;52.012;4.736;2023-07-29T11:40:15;6.28;;;2.40;;
78489;SDS011;67776;52.012;4.736;2023-07-29T11:42:41;4.47;;;2.37;;
78489;SDS011;67776;52.012;4.736;2023-07-29T11:57:55;5.30;;;2.60;;
78489;SDS011;67776;52.012;4.736;2023-07-29T12:00:22;5.45;;;2.50;;
78489;SDS011;67776;52.012;4.736;2023-07-29T12:02:47;5.20;;;2.70;;
78489;SDS011;67776;52.012;4.736;2023-07-29T12:05:14;5.53;;;2.50;;
78489;SDS011;67776;52.012;4.736;2023-07-29T12:07:41;6.15;;;2.60;;
78489;SDS011;67776;52.012;4.736;2023-07-29T12:10:07;6.28;;;2.90;;
78489;SDS011;67776;52.012;4.736;2023-07-29T12:12:33;5.10;;;2.73;;
78489;SDS011;67776;52.012;4.736;2023-07-29T12:15:02;5.30;;;3.00;;
78489;SDS011;67776;52.012;4.736;2023-07-29T12:17:27;5.93;;;3.20;;
78489;SDS011;67776;52.012;4.736;2023-07-29T12:19:54;5.90;;;3.60;;
78489;SDS011;67776;52.012;4.736;2023-07-29T12:22:20;5.97;;;3.80;;
78489;SDS011;67776;52.012;4.736;2023-07-29T12:24:46;5.20;;;3.20;;
78489;SDS011;67776;52.012;4.736;2023-07-29T12:27:12;6.50;;;3.25;;
78489;SDS011;67776;52.012;4.736;2023-07-29T12:29:42;5.47;;;3.03;;
78489;SDS011;67776;52.012;4.736;2023-07-29T12:32:08;6.15;;;3.25;;
78489;SDS011;67776;52.012;4.736;2023-07-29T12:34:35;5.55;;;3.03;;
78489;SDS011;67776;52.012;4.736;2023-07-29T12:37:02;5.57;;;3.05;;
78489;SDS011;67776;52.012;4.736;2023-07-29T12:39:29;6.03;;;3.35;;
78489;SDS011;67776;52.012;4.736;2023-07-29T12:41:57;6.73;;;3.20;;
78489;SDS011;67776;52.012;4.736;2023-07-29T12:44:24;5.70;;;3.17;;
78489;SDS011;67776;52.012;4.736;2023-07-29T12:46:50;5.28;;;3.20;;
78489;SDS011;67776;52.012;4.736;2023-07-29T12:49:16;6.78;;;3.40;;
78489;SDS011;67776;52.012;4.736;2023-07-29T12:51:41;4.97;;;3.10;;
78489;SDS011;67776;52.012;4.736;2023-07-29T12:54:08;7.15;;;3.72;;
78489;SDS011;67776;52.012;4.736;2023-07-29T12:56:33;7.30;;;4.30;;
78489;SDS011;67776;52.012;4.736;2023-07-29T12:58:59;6.90;;;3.87;;
78489;SDS011;67776;52.012;4.736;2023-07-29T13:01:26;7.78;;;4.20;;
78489;SDS011;67776;52.012;4.736;2023-07-29T13:03:52;6.40;;;3.30;;
78489;SDS011;67776;52.012;4.736;2023-07-29T13:06:18;5.60;;;3.20;;
78489;SDS011;67776;52.012;4.736;2023-07-29T13:08:44;4.50;;;2.37;;
78489;SDS011;67776;52.012;4.736;2023-07-29T13:11:10;4.65;;;2.00;;
78489;SDS011;67776;52.012;4.736;2023-07-29T13:13:36;3.70;;;2.00;;
78489;SDS011;67776;52.012;4.736;2023-07-29T13:16:01;4.53;;;2.60;;
78489;SDS011;67776;52.012;4.736;2023-07-29T13:18:27;5.68;;;2.55;;
78489;SDS011;67776;52.012;4.736;2023-07-29T13:20:53;4.67;;;2.00;;
78489;SDS011;67776;52.012;4.736;2023-07-29T13:23:18;6.07;;;2.50;;
78489;SDS011;67776;52.012;4.736;2023-07-29T13:25:44;6.13;;;2.03;;
78489;SDS011;67776;52.012;4.736;2023-07-29T13:28:10;5.80;;;2.10;;
78489;SDS011;67776;52.012;4.736;2023-07-29T13:30:35;4.20;;;1.63;;
78489;SDS011;67776;52.012;4.736;2023-07-29T13:33:01;5.60;;;2.20;;
78489;SDS011;67776;52.012;4.736;2023-07-29T13:35:26;4.63;;;1.93;;
78489;SDS011;67776;52.012;4.736;2023-07-29T13:37:52;5.93;;;2.17;;
78489;SDS011;67776;52.012;4.736;2023-07-29T13:40:17;5.43;;;2.00;;
78489;SDS011;67776;52.012;4.736;2023-07-29T13:42:42;4.43;;;1.90;;
78489;SDS011;67776;52.012;4.736;2023-07-29T13:45:08;3.90;;;1.90;;
78489;SDS011;67776;52.012;4.736;2023-07-29T13:47:33;4.63;;;1.77;;
78489;SDS011;67776;52.012;4.736;2023-07-29T13:49:59;4.17;;;1.70;;
78489;SDS011;67776;52.012;4.736;2023-07-29T13:52:25;5.15;;;1.80;;
78489;SDS011;67776;52.012;4.736;2023-07-29T13:54:50;5.87;;;1.80;;
78489;SDS011;67776;52.012;4.736;2023-07-29T13:57:15;4.13;;;1.60;;
78489;SDS011;67776;52.012;4.736;2023-07-29T13:59:41;4.67;;;1.70;;
78489;SDS011;67776;52.012;4.736;2023-07-29T14:02:06;5.13;;;1.70;;
78489;SDS011;67776;52.012;4.736;2023-07-29T14:04:32;5.00;;;2.00;;
78489;SDS011;67776;52.012;4.736;2023-07-29T14:06:58;4.63;;;1.70;;
78489;SDS011;67776;52.012;4.736;2023-07-29T14:09:24;3.80;;;1.80;;
78489;SDS011;67776;52.012;4.736;2023-07-29T14:11:50;4.60;;;2.03;;
78489;SDS011;67776;52.012;4.736;2023-07-29T14:14:15;4.87;;;1.97;;
78489;SDS011;67776;52.012;4.736;2023-07-29T14:16:41;4.33;;;1.80;;
78489;SDS011;67776;52.012;4.736;2023-07-29T14:19:06;3.50;;;1.80;;
78489;SDS011;67776;52.012;4.736;2023-07-29T14:21:32;5.03;;;1.50;;
78489;SDS011;67776;52.012;4.736;2023-07-29T14:23:57;3.87;;;1.57;;
78489;SDS011;67776;52.012;4.736;2023-07-29T14:26:22;5.03;;;2.10;;
78489;SDS011;67776;52.012;4.736;2023-07-29T14:28:48;4.93;;;2.10;;
78489;SDS011;67776;52.012;4.736;2023-07-29T14:31:14;4.87;;;1.90;;
78489;SDS011;67776;52.012;4.736;2023-07-29T14:33:41;5.70;;;2.10;;
78489;SDS011;67776;52.012;4.736;2023-07-29T14:36:07;5.80;;;1.87;;
78489;SDS011;67776;52.012;4.736;2023-07-29T14:38:32;5.00;;;1.80;;
78489;SDS011;67776;52.012;4.736;2023-07-29T14:40:58;4.83;;;1.80;;
78489;SDS011;67776;52.012;4.736;2023-07-29T14:43:23;3.80;;;1.60;;
78489;SDS011;67776;52.012;4.736;2023-07-29T14:45:49;3.83;;;1.70;;
78489;SDS011;67776;52.012;4.736;2023-07-29T14:48:14;4.88;;;1.98;;
78489;SDS011;67776;52.012;4.736;2023-07-29T14:50:39;4.40;;;1.77;;
78489;SDS011;67776;52.012;4.736;2023-07-29T14:53:05;4.30;;;1.80;;
78489;SDS011;67776;52.012;4.736;2023-07-29T14:55:30;5.87;;;2.00;;
78489;SDS011;67776;52.012;4.736;2023-07-29T14:57:55;7.00;;;2.27;;
78489;SDS011;67776;52.012;4.736;2023-07-29T15:00:21;4.53;;;1.90;;
78489;SDS011;67776;52.012;4.736;2023-07-29T15:02:46;5.37;;;2.00;;
78489;SDS011;67776;52.012;4.736;2023-07-29T15:05:12;3.70;;;1.60;;
78489;SDS011;67776;52.012;4.736;2023-07-29T15:07:37;4.57;;;1.70;;
78489;SDS011;67776;52.012;4.736;2023-07-29T15:10:02;6.00;;;2.20;;
78489;SDS011;67776;52.012;4.736;2023-07-29T15:12:28;3.63;;;1.70;;
78489;SDS011;67776;52.012;4.736;2023-07-29T15:14:53;5.50;;;2.20;;
78489;SDS011;67776;52.012;4.736;2023-07-29T15:17:19;4.87;;;1.80;;
78489;SDS011;67776;52.012;4.736;2023-07-29T15:19:44;5.57;;;1.90;;
78489;SDS011;67776;52.012;4.736;2023-07-29T15:22:09;4.73;;;2.00;;